Airport View

Enter AWOS ICAO identifier for current METAR.

ex. KFNL

KPTK 262253Z 28015G25KT 2 1/2SM -SN BR OVC009 01/M01 A2975 RMK AO2 SFC VIS 5 SLP083 P0000 T00111011 $

26 Jan 2020 23:59

Frequency: 125.025

Phone: 248-886-8551

Other Area AWOS: KVLL - KFNT - KDET - KD95

TAF KPTK 261725Z 2618/2718 25010KT 3SM -DZ BR OVC007 FM262100 27012KT 5SM -SHSN BR OVC009 TEMPO 2702/2706 2SM -SN OVC006 FM270600 28008KT 4SM BR OVC007 FM271000 33007KT P6SM OVC015